sensor_id;sensor_type;location;lat;lon;timestamp;temperature;humidity
10905;DHT22;5505;51.450;9.254;2023-03-01T04:57:21;-5.00;99.90
10905;DHT22;5505;51.450;9.254;2023-03-01T05:00:12;-5.20;99.90
10905;DHT22;5505;51.450;9.254;2023-03-01T05:03:08;-5.30;99.90
10905;DHT22;5505;51.450;9.254;2023-03-01T05:05:58;-3.90;99.90
10905;DHT22;5505;51.450;9.254;2023-03-01T05:08:46;-5.40;99.90
10905;DHT22;5505;51.450;9.254;2023-03-01T05:11:34;-5.40;99.90
10905;DHT22;5505;51.450;9.254;2023-03-01T05:14:21;-5.30;99.90
10905;DHT22;5505;51.450;9.254;2023-03-01T05:17:08;-5.30;99.90
10905;DHT22;5505;51.450;9.254;2023-03-01T05:19:56;-5.40;99.90
10905;DHT22;5505;51.450;9.254;2023-03-01T05:22:45;-5.40;99.90
10905;DHT22;5505;51.450;9.254;2023-03-01T05:25:32;-5.50;99.90
10905;DHT22;5505;51.450;9.254;2023-03-01T05:28:20;-5.40;99.90
10905;DHT22;5505;51.450;9.254;2023-03-01T05:31:07;-5.50;99.90
10905;DHT22;5505;51.450;9.254;2023-03-01T05:33:55;-5.50;99.90
10905;DHT22;5505;51.450;9.254;2023-03-01T05:36:43;-5.50;99.90
10905;DHT22;5505;51.450;9.254;2023-03-01T05:39:30;-5.50;99.90
10905;DHT22;5505;51.450;9.254;2023-03-01T05:42:18;-5.50;99.90
10905;DHT22;5505;51.450;9.254;2023-03-01T05:45:06;-4.60;99.90
10905;DHT22;5505;51.450;9.254;2023-03-01T05:47:55;-5.60;99.90
10905;DHT22;5505;51.450;9.254;2023-03-01T05:50:43;-5.70;99.90
10905;DHT22;5505;51.450;9.254;2023-03-01T05:53:32;-5.70;99.90
10905;DHT22;5505;51.450;9.254;2023-03-01T05:56:19;-5.70;99.90
10905;DHT22;5505;51.450;9.254;2023-03-01T05:59:07;-5.80;99.90
10905;DHT22;5505;51.450;9.254;2023-03-01T06:01:54;-5.90;99.90
10905;DHT22;5505;51.450;9.254;2023-03-01T06:04:41;-5.90;99.90
10905;DHT22;5505;51.450;9.254;2023-03-01T06:07:28;-6.00;99.90
10905;DHT22;5505;51.450;9.254;2023-03-01T06:10:18;-6.00;99.90
10905;DHT22;5505;51.450;9.254;2023-03-01T06:13:05;-4.70;99.90
10905;DHT22;5505;51.450;9.254;2023-03-01T06:15:52;-6.00;99.90
10905;DHT22;5505;51.450;9.254;2023-03-01T06:18:39;-5.90;99.90
10905;DHT22;5505;51.450;9.254;2023-03-01T06:21:26;-6.00;99.90
10905;DHT22;5505;51.450;9.254;2023-03-01T06:24:13;-6.00;99.90
10905;DHT22;5505;51.450;9.254;2023-03-01T06:27:01;-5.90;99.90
10905;DHT22;5505;51.450;9.254;2023-03-01T06:29:49;-5.90;99.90
10905;DHT22;5505;51.450;9.254;2023-03-01T06:32:39;-5.80;99.90
10905;DHT22;5505;51.450;9.254;2023-03-01T06:35:27;-5.70;99.90
10905;DHT22;5505;51.450;9.254;2023-03-01T06:38:16;-5.60;99.90
10905;DHT22;5505;51.450;9.254;2023-03-01T06:41:05;-2.30;99.90
10905;DHT22;5505;51.450;9.254;2023-03-01T06:43:53;-4.60;99.90
10905;DHT22;5505;51.450;9.254;2023-03-01T06:46:41;-3.50;99.90
10905;DHT22;5505;51.450;9.254;2023-03-01T06:49:28;-3.70;99.90
10905;DHT22;5505;51.450;9.254;2023-03-01T06:52:15;-3.60;99.90
10905;DHT22;5505;51.450;9.254;2023-03-01T06:55:03;-2.80;99.90
10905;DHT22;5505;51.450;9.254;2023-03-01T06:57:54;-3.50;99.90
10905;DHT22;5505;51.450;9.254;2023-03-01T07:00:45;-3.50;99.90
10905;DHT22;5505;51.450;9.254;2023-03-01T07:03:32;-3.60;99.90
10905;DHT22;5505;51.450;9.254;2023-03-01T07:06:19;-3.70;99.90
10905;DHT22;5505;51.450;9.254;2023-03-01T07:09:06;-3.80;99.90
10905;DHT22;5505;51.450;9.254;2023-03-01T07:11:53;-1.80;99.90
10905;DHT22;5505;51.450;9.254;2023-03-01T07:14:40;-3.80;99.90
10905;DHT22;5505;51.450;9.254;2023-03-01T07:17:28;-2.80;99.90
10905;DHT22;5505;51.450;9.254;2023-03-01T07:20:16;-3.70;99.90
10905;DHT22;5505;51.450;9.254;2023-03-01T07:23:03;-3.70;99.90
10905;DHT22;5505;51.450;9.254;2023-03-01T07:25:53;-3.40;99.90
10905;DHT22;5505;51.450;9.254;2023-03-01T07:28:40;-3.10;99.90
10905;DHT22;5505;51.450;9.254;2023-03-01T07:31:27;-1.90;99.90
10905;DHT22;5505;51.450;9.254;2023-03-01T07:34:15;-2.70;99.90
10905;DHT22;5505;51.450;9.254;2023-03-01T07:37:02;-2.30;99.90
10905;DHT22;5505;51.450;9.254;2023-03-01T07:39:48;-2.00;99.90
10905;DHT22;5505;51.450;9.254;2023-03-01T07:42:35;-1.70;99.90
10905;DHT22;5505;51.450;9.254;2023-03-01T07:45:22;-1.30;99.90
10905;DHT22;5505;51.450;9.254;2023-03-01T07:48:09;-2.70;99.90
10905;DHT22;5505;51.450;9.254;2023-03-01T07:50:59;1.30;99.90
10905;DHT22;5505;51.450;9.254;2023-03-01T07:53:46;-0.80;99.90
10905;DHT22;5505;51.450;9.254;2023-03-01T07:56:33;1.20;99.90
10905;DHT22;5505;51.450;9.254;2023-03-01T07:59:20;-0.30;99.90
10905;DHT22;5505;51.450;9.254;2023-03-01T08:02:09;-0.30;99.90
10905;DHT22;5505;51.450;9.254;2023-03-01T08:04:56;-0.30;99.90
10905;DHT22;5505;51.450;9.254;2023-03-01T08:07:45;-0.40;99.90
10905;DHT22;5505;51.450;9.254;2023-03-01T08:10:31;-0.40;99.90
10905;DHT22;5505;51.450;9.254;2023-03-01T08:13:18;-0.30;99.90
10905;DHT22;5505;51.450;9.254;2023-03-01T08:16:10;-0.50;99.90
10905;DHT22;5505;51.450;9.254;2023-03-01T08:19:02;-0.50;99.90
10905;DHT22;5505;51.450;9.254;2023-03-01T08:21:49;-0.60;99.90
10905;DHT22;5505;51.450;9.254;2023-03-01T08:24:37;-0.40;99.90
10905;DHT22;5505;51.450;9.254;2023-03-01T08:27:24;-0.30;99.90
10905;DHT22;5505;51.450;9.254;2023-03-01T08:30:12;-0.40;99.90
10905;DHT22;5505;51.450;9.254;2023-03-01T08:32:59;-0.30;99.90
10905;DHT22;5505;51.450;9.254;2023-03-01T08:35:46;0.10;99.90
10905;DHT22;5505;51.450;9.254;2023-03-01T08:38:33;0.30;99.90
10905;DHT22;5505;51.450;9.254;2023-03-01T08:41:21;0.70;99.90
10905;DHT22;5505;51.450;9.254;2023-03-01T08:44:09;0.70;99.90
10905;DHT22;5505;51.450;9.254;2023-03-01T08:46:57;0.90;99.90
10905;DHT22;5505;51.450;9.254;2023-03-01T08:49:45;1.10;99.90
10905;DHT22;5505;51.450;9.254;2023-03-01T08:52:32;1.20;99.90
10905;DHT22;5505;51.450;9.254;2023-03-01T08:55:19;1.20;99.90
10905;DHT22;5505;51.450;9.254;2023-03-01T08:58:07;1.20;99.90
10905;DHT22;5505;51.450;9.254;2023-03-01T09:00:54;1.20;99.90
10905;DHT22;5505;51.450;9.254;2023-03-01T09:03:42;1.20;99.90
10905;DHT22;5505;51.450;9.254;2023-03-01T09:06:30;1.30;99.90
10905;DHT22;5505;51.450;9.254;2023-03-01T09:09:18;1.40;99.90
10905;DHT22;5505;51.450;9.254;2023-03-01T09:12:06;1.30;99.90
10905;DHT22;5505;51.450;9.254;2023-03-01T09:14:54;1.30;99.90
10905;DHT22;5505;51.450;9.254;2023-03-01T09:17:41;2.40;99.90
10905;DHT22;5505;51.450;9.254;2023-03-01T09:20:28;1.50;99.90
10905;DHT22;5505;51.450;9.254;2023-03-01T09:23:16;1.70;99.90
10905;DHT22;5505;51.450;9.254;2023-03-01T09:26:03;1.70;99.90
10905;DHT22;5505;51.450;9.254;2023-03-01T09:28:51;1.70;99.90
10905;DHT22;5505;51.450;9.254;2023-03-01T09:31:40;1.80;99.90
10905;DHT22;5505;51.450;9.254;2023-03-01T09:34:27;4.00;99.90
10905;DHT22;5505;51.450;9.254;2023-03-01T09:37:13;1.90;99.90
10905;DHT22;5505;51.450;9.254;2023-03-01T09:40:00;2.60;99.90
10905;DHT22;5505;51.450;9.254;2023-03-01T09:42:54;2.10;99.90
10905;DHT22;5505;51.450;9.254;2023-03-01T09:45:44;2.20;99.90
10905;DHT22;5505;51.450;9.254;2023-03-01T09:48:38;2.10;99.90
10905;DHT22;5505;51.450;9.254;2023-03-01T09:51:31;2.20;99.90
10905;DHT22;5505;51.450;9.254;2023-03-01T09:54:18;2.20;99.90
10905;DHT22;5505;51.450;9.254;2023-03-01T09:57:13;2.50;99.90
10905;DHT22;5505;51.450;9.254;2023-03-01T10:00:17;5.50;99.90
10905;DHT22;5505;51.450;9.254;2023-03-01T10:03:16;2.40;99.90
10905;DHT22;5505;51.450;9.254;2023-03-01T10:06:10;2.30;99.90
10905;DHT22;5505;51.450;9.254;2023-03-01T10:08:59;2.50;99.90
10905;DHT22;5505;51.450;9.254;2023-03-01T10:11:49;2.40;99.90
10905;DHT22;5505;51.450;9.254;2023-03-01T10:14:52;2.60;99.90
10905;DHT22;5505;51.450;9.254;2023-03-01T10:17:45;2.70;99.90
10905;DHT22;5505;51.450;9.254;2023-03-01T10:20:42;2.80;99.90
10905;DHT22;5505;51.450;9.254;2023-03-01T10:23:38;3.20;99.90
10905;DHT22;5505;51.450;9.254;2023-03-01T10:26:38;3.10;99.90
10905;DHT22;5505;51.450;9.254;2023-03-01T10:29:30;3.30;99.90
10905;DHT22;5505;51.450;9.254;2023-03-01T10:32:18;3.00;99.90
10905;DHT22;5505;51.450;9.254;2023-03-01T10:35:16;3.80;99.90
10905;DHT22;5505;51.450;9.254;2023-03-01T10:38:06;5.20;99.90
10905;DHT22;5505;51.450;9.254;2023-03-01T10:40:56;3.00;99.90
10905;DHT22;5505;51.450;9.254;2023-03-01T10:43:46;3.00;99.90
10905;DHT22;5505;51.450;9.254;2023-03-01T10:46:34;3.00;99.90
10905;DHT22;5505;51.450;9.254;2023-03-01T10:49:22;3.20;99.90
10905;DHT22;5505;51.450;9.254;2023-03-01T10:52:18;3.20;99.90
10905;DHT22;5505;51.450;9.254;2023-03-01T10:55:24;3.20;99.90
10905;DHT22;5505;51.450;9.254;2023-03-01T10:58:20;3.50;99.90
10905;DHT22;5505;51.450;9.254;2023-03-01T11:01:25;3.50;99.90
10905;DHT22;5505;51.450;9.254;2023-03-01T11:04:13;3.50;99.90
10905;DHT22;5505;51.450;9.254;2023-03-01T11:07:01;6.20;99.90
10905;DHT22;5505;51.450;9.254;2023-03-01T11:09:49;5.00;99.90
10905;DHT22;5505;51.450;9.254;2023-03-01T11:12:36;5.20;99.90
10905;DHT22;5505;51.450;9.254;2023-03-01T11:15:27;3.50;99.90
10905;DHT22;5505;51.450;9.254;2023-03-01T11:18:22;3.70;99.90
10905;DHT22;5505;51.450;9.254;2023-03-01T11:21:09;4.50;99.90
10905;DHT22;5505;51.450;9.254;2023-03-01T11:23:58;3.40;99.90
10905;DHT22;5505;51.450;9.254;2023-03-01T11:26:50;6.00;99.90
10905;DHT22;5505;51.450;9.254;2023-03-01T11:29:44;4.00;99.90
10905;DHT22;5505;51.450;9.254;2023-03-01T11:32:45;6.10;99.90
10905;DHT22;5505;51.450;9.254;2023-03-01T11:35:36;3.90;99.90
10905;DHT22;5505;51.450;9.254;2023-03-01T11:38:26;5.00;99.90
10905;DHT22;5505;51.450;9.254;2023-03-01T11:41:16;7.20;99.90
10905;DHT22;5505;51.450;9.254;2023-03-01T11:44:09;6.20;99.90
10905;DHT22;5505;51.450;9.254;2023-03-01T11:47:26;4.10;99.90
10905;DHT22;5505;51.450;9.254;2023-03-01T11:50:23;4.20;99.90
10905;DHT22;5505;51.450;9.254;2023-03-01T11:53:42;4.20;99.90
10905;DHT22;5505;51.450;9.254;2023-03-01T11:56:35;4.20;99.90
10905;DHT22;5505;51.450;9.254;2023-03-01T11:59:39;4.20;99.90
10905;DHT22;5505;51.450;9.254;2023-03-01T12:03:00;4.20;99.90
10905;DHT22;5505;51.450;9.254;2023-03-01T12:05:58;4.10;99.90
10905;DHT22;5505;51.450;9.254;2023-03-01T12:09:26;4.30;99.90
10905;DHT22;5505;51.450;9.254;2023-03-01T12:12:42;4.30;99.90
10905;DHT22;5505;51.450;9.254;2023-03-01T12:15:39;4.30;99.90
10905;DHT22;5505;51.450;9.254;2023-03-01T12:21:54;4.20;99.90
10905;DHT22;5505;51.450;9.254;2023-03-01T12:25:16;4.20;99.90
10905;DHT22;5505;51.450;9.254;2023-03-01T12:28:32;4.40;99.90
10905;DHT22;5505;51.450;9.254;2023-03-01T12:35:00;4.60;99.90
10905;DHT22;5505;51.450;9.254;2023-03-01T12:37:58;4.50;99.90
10905;DHT22;5505;51.450;9.254;2023-03-01T12:41:06;4.60;99.90
10905;DHT22;5505;51.450;9.254;2023-03-01T12:44:04;4.60;99.90
10905;DHT22;5505;51.450;9.254;2023-03-01T12:47:07;4.80;99.90
10905;DHT22;5505;51.450;9.254;2023-03-01T12:50:01;4.80;99.90
10905;DHT22;5505;51.450;9.254;2023-03-01T12:52:51;5.70;99.90
10905;DHT22;5505;51.450;9.254;2023-03-01T12:55:41;4.80;99.90
10905;DHT22;5505;51.450;9.254;2023-03-01T12:58:33;4.70;99.90
10905;DHT22;5505;51.450;9.254;2023-03-01T13:01:31;5.20;99.90
10905;DHT22;5505;51.450;9.254;2023-03-01T13:04:35;4.80;99.90
10905;DHT22;5505;51.450;9.254;2023-03-01T13:07:30;4.70;99.90
10905;DHT22;5505;51.450;9.254;2023-03-01T13:10:24;4.70;99.90
10905;DHT22;5505;51.450;9.254;2023-03-01T13:13:19;4.70;99.90
10905;DHT22;5505;51.450;9.254;2023-03-01T13:16:22;4.80;99.90
10905;DHT22;5505;51.450;9.254;2023-03-01T13:19:13;4.70;99.90
10905;DHT22;5505;51.450;9.254;2023-03-01T13:22:25;5.00;99.90
10905;DHT22;5505;51.450;9.254;2023-03-01T13:25:16;4.70;99.90
10905;DHT22;5505;51.450;9.254;2023-03-01T13:28:40;4.70;99.90
10905;DHT22;5505;51.450;9.254;2023-03-01T13:34:50;4.80;99.90
10905;DHT22;5505;51.450;9.254;2023-03-01T13:37:37;4.80;99.90
10905;DHT22;5505;51.450;9.254;2023-03-01T13:40:59;4.90;99.90
10905;DHT22;5505;51.450;9.254;2023-03-01T13:43:48;4.80;99.90
10905;DHT22;5505;51.450;9.254;2023-03-01T13:46:35;4.90;99.90
10905;DHT22;5505;51.450;9.254;2023-03-01T13:49:27;5.10;99.90
10905;DHT22;5505;51.450;9.254;2023-03-01T13:52:35;5.00;99.90
10905;DHT22;5505;51.450;9.254;2023-03-01T13:55:27;5.00;99.90
10905;DHT22;5505;51.450;9.254;2023-03-01T13:58:22;5.00;99.90
10905;DHT22;5505;51.450;9.254;2023-03-01T14:01:25;5.00;99.90
10905;DHT22;5505;51.450;9.254;2023-03-01T14:04:21;5.00;99.90
10905;DHT22;5505;51.450;9.254;2023-03-01T14:07:12;4.80;99.90
10905;DHT22;5505;51.450;9.254;2023-03-01T14:10:03;4.90;99.90
10905;DHT22;5505;51.450;9.254;2023-03-01T14:12:55;4.90;99.90
10905;DHT22;5505;51.450;9.254;2023-03-01T14:15:49;4.80;99.90
10905;DHT22;5505;51.450;9.254;2023-03-01T14:18:52;4.80;99.90
10905;DHT22;5505;51.450;9.254;2023-03-01T14:21:40;4.80;99.90
10905;DHT22;5505;51.450;9.254;2023-03-01T14:24:27;4.80;99.90
10905;DHT22;5505;51.450;9.254;2023-03-01T14:27:14;4.70;99.90
10905;DHT22;5505;51.450;9.254;2023-03-01T14:30:04;4.70;99.90
10905;DHT22;5505;51.450;9.254;2023-03-01T14:32:59;4.80;99.90
10905;DHT22;5505;51.450;9.254;2023-03-01T14:35:55;4.80;99.90
10905;DHT22;5505;51.450;9.254;2023-03-01T14:38:45;4.80;99.90
10905;DHT22;5505;51.450;9.254;2023-03-01T14:41:34;4.80;99.90
10905;DHT22;5505;51.450;9.254;2023-03-01T14:44:23;4.80;99.90
10905;DHT22;5505;51.450;9.254;2023-03-01T14:47:12;4.70;99.90
10905;DHT22;5505;51.450;9.254;2023-03-01T14:50:03;4.70;99.90
10905;DHT22;5505;51.450;9.254;2023-03-01T14:52:55;4.80;99.90
10905;DHT22;5505;51.450;9.254;2023-03-01T14:55:45;4.70;99.90
10905;DHT22;5505;51.450;9.254;2023-03-01T14:58:33;4.60;99.90
10905;DHT22;5505;51.450;9.254;2023-03-01T15:01:20;5.40;99.90
10905;DHT22;5505;51.450;9.254;2023-03-01T15:04:11;4.60;99.90
10905;DHT22;5505;51.450;9.254;2023-03-01T15:06:58;4.60;99.90
10905;DHT22;5505;51.450;9.254;2023-03-01T15:09:51;4.60;99.90
10905;DHT22;5505;51.450;9.254;2023-03-01T15:12:40;5.10;99.90
10905;DHT22;5505;51.450;9.254;2023-03-01T15:15:45;4.60;99.90
10905;DHT22;5505;51.450;9.254;2023-03-01T15:18:34;4.50;99.90
10905;DHT22;5505;51.450;9.254;2023-03-01T15:21:23;4.60;99.90
10905;DHT22;5505;51.450;9.254;2023-03-01T15:24:18;4.70;99.90
10905;DHT22;5505;51.450;9.254;2023-03-01T15:27:15;5.90;99.90
10905;DHT22;5505;51.450;9.254;2023-03-01T15:30:04;4.70;99.90
10905;DHT22;5505;51.450;9.254;2023-03-01T15:33:16;4.60;99.90
10905;DHT22;5505;51.450;9.254;2023-03-01T15:36:30;4.60;99.90
10905;DHT22;5505;51.450;9.254;2023-03-01T15:39:36;4.50;99.90
10905;DHT22;5505;51.450;9.254;2023-03-01T15:42:39;4.60;99.90
10905;DHT22;5505;51.450;9.254;2023-03-01T15:45:28;4.40;99.90
10905;DHT22;5505;51.450;9.254;2023-03-01T15:48:17;4.30;99.90
10905;DHT22;5505;51.450;9.254;2023-03-01T15:51:12;4.30;99.90
10905;DHT22;5505;51.450;9.254;2023-03-01T15:54:03;4.30;99.90
10905;DHT22;5505;51.450;9.254;2023-03-01T15:56:50;5.80;99.90
10905;DHT22;5505;51.450;9.254;2023-03-01T15:59:39;4.20;99.90
10905;DHT22;5505;51.450;9.254;2023-03-01T16:02:26;4.70;99.90
10905;DHT22;5505;51.450;9.254;2023-03-01T16:05:18;5.60;99.90
10905;DHT22;5505;51.450;9.254;2023-03-01T16:08:06;4.00;99.90
10905;DHT22;5505;51.450;9.254;2023-03-01T16:10:53;4.00;99.90
10905;DHT22;5505;51.450;9.254;2023-03-01T16:13:40;3.90;99.90
10905;DHT22;5505;51.450;9.254;2023-03-01T16:16:28;3.90;99.90
10905;DHT22;5505;51.450;9.254;2023-03-01T16:19:15;4.00;99.90
10905;DHT22;5505;51.450;9.254;2023-03-01T16:22:02;3.70;99.90
10905;DHT22;5505;51.450;9.254;2023-03-01T16:24:49;3.70;99.90
10905;DHT22;5505;51.450;9.254;2023-03-01T16:27:36;3.60;99.90
10905;DHT22;5505;51.450;9.254;2023-03-01T16:30:23;3.60;99.90
10905;DHT22;5505;51.450;9.254;2023-03-01T16:33:11;3.50;99.90
10905;DHT22;5505;51.450;9.254;2023-03-01T16:35:58;3.50;99.90
10905;DHT22;5505;51.450;9.254;2023-03-01T16:38:45;5.80;99.90
10905;DHT22;5505;51.450;9.254;2023-03-01T16:41:33;3.30;99.90
10905;DHT22;5505;51.450;9.254;2023-03-01T16:44:20;3.20;99.90
10905;DHT22;5505;51.450;9.254;2023-03-01T16:47:07;3.20;99.90
10905;DHT22;5505;51.450;9.254;2023-03-01T16:49:55;3.10;99.90
10905;DHT22;5505;51.450;9.254;2023-03-01T16:52:42;3.00;99.90
10905;DHT22;5505;51.450;9.254;2023-03-01T16:55:29;2.90;99.90
10905;DHT22;5505;51.450;9.254;2023-03-01T16:58:16;3.00;99.90
10905;DHT22;5505;51.450;9.254;2023-03-01T17:01:07;3.30;99.90
10905;DHT22;5505;51.450;9.254;2023-03-01T17:03:56;3.20;99.90
10905;DHT22;5505;51.450;9.254;2023-03-01T17:06:44;3.20;99.90
10905;DHT22;5505;51.450;9.254;2023-03-01T17:09:34;2.80;99.90
10905;DHT22;5505;51.450;9.254;2023-03-01T17:12:21;2.50;99.90
10905;DHT22;5505;51.450;9.254;2023-03-01T17:15:09;2.30;99.90
10905;DHT22;5505;51.450;9.254;2023-03-01T17:17:57;2.10;99.90
10905;DHT22;5505;51.450;9.254;2023-03-01T17:20:44;1.90;99.90
10905;DHT22;5505;51.450;9.254;2023-03-01T17:23:33;1.80;99.90
10905;DHT22;5505;51.450;9.254;2023-03-01T17:26:20;1.60;99.90
10905;DHT22;5505;51.450;9.254;2023-03-01T17:29:07;1.70;99.90
10905;DHT22;5505;51.450;9.254;2023-03-01T17:31:54;1.60;99.90
10905;DHT22;5505;51.450;9.254;2023-03-01T17:34:41;1.50;99.90
10905;DHT22;5505;51.450;9.254;2023-03-01T17:37:28;1.60;99.90
10905;DHT22;5505;51.450;9.254;2023-03-01T17:40:16;2.00;99.90
10905;DHT22;5505;51.450;9.254;2023-03-01T17:43:03;1.70;99.90
10905;DHT22;5505;51.450;9.254;2023-03-01T17:45:50;1.70;99.90
10905;DHT22;5505;51.450;9.254;2023-03-01T17:48:37;1.50;99.90
10905;DHT22;5505;51.450;9.254;2023-03-01T17:51:24;1.40;99.90
10905;DHT22;5505;51.450;9.254;2023-03-01T17:54:11;1.30;99.90
10905;DHT22;5505;51.450;9.254;2023-03-01T17:56:59;1.20;99.90
10905;DHT22;5505;51.450;9.254;2023-03-01T17:59:45;2.40;99.90
10905;DHT22;5505;51.450;9.254;2023-03-01T18:02:32;1.20;99.90
10905;DHT22;5505;51.450;9.254;2023-03-01T18:05:19;1.20;99.90
10905;DHT22;5505;51.450;9.254;2023-03-01T18:08:06;1.20;99.90
10905;DHT22;5505;51.450;9.254;2023-03-01T18:10:57;1.20;99.90
10905;DHT22;5505;51.450;9.254;2023-03-01T18:13:46;1.20;99.90
10905;DHT22;5505;51.450;9.254;2023-03-01T18:16:33;1.10;99.90
10905;DHT22;5505;51.450;9.254;2023-03-01T18:19:20;1.20;99.90
10905;DHT22;5505;51.450;9.254;2023-03-01T18:22:07;1.40;99.90
10905;DHT22;5505;51.450;9.254;2023-03-01T18:24:54;1.40;99.90
10905;DHT22;5505;51.450;9.254;2023-03-01T18:27:41;1.40;99.90
10905;DHT22;5505;51.450;9.254;2023-03-01T18:30:29;1.40;99.90
10905;DHT22;5505;51.450;9.254;2023-03-01T18:33:18;1.40;99.90
10905;DHT22;5505;51.450;9.254;2023-03-01T18:36:06;1.30;99.90
10905;DHT22;5505;51.450;9.254;2023-03-01T18:39:01;1.20;99.90
10905;DHT22;5505;51.450;9.254;2023-03-01T18:41:49;1.20;99.90
10905;DHT22;5505;51.450;9.254;2023-03-01T18:44:36;3.00;99.90
10905;DHT22;5505;51.450;9.254;2023-03-01T18:47:24;1.20;99.90
10905;DHT22;5505;51.450;9.254;2023-03-01T18:50:11;1.10;99.90
10905;DHT22;5505;51.450;9.254;2023-03-01T18:52:58;1.00;99.90
10905;DHT22;5505;51.450;9.254;2023-03-01T18:55:45;0.90;99.90
10905;DHT22;5505;51.450;9.254;2023-03-01T18:58:31;0.80;99.90
10905;DHT22;5505;51.450;9.254;2023-03-01T19:01:20;0.60;99.90
10905;DHT22;5505;51.450;9.254;2023-03-01T19:04:09;0.40;99.90
10905;DHT22;5505;51.450;9.254;2023-03-01T19:06:56;0.40;99.90
10905;DHT22;5505;51.450;9.254;2023-03-01T19:09:46;0.40;99.90
10905;DHT22;5505;51.450;9.254;2023-03-01T19:12:34;0.40;99.90
10905;DHT22;5505;51.450;9.254;2023-03-01T19:15:21;2.00;99.90
10905;DHT22;5505;51.450;9.254;2023-03-01T19:18:08;0.00;99.90
10905;DHT22;5505;51.450;9.254;2023-03-01T19:20:58;0.00;99.90
10905;DHT22;5505;51.450;9.254;2023-03-01T19:23:45;-0.20;99.90
10905;DHT22;5505;51.450;9.254;2023-03-01T19:26:33;-0.20;99.90
10905;DHT22;5505;51.450;9.254;2023-03-01T19:29:20;-0.20;99.90
10905;DHT22;5505;51.450;9.254;2023-03-01T19:32:08;-0.20;99.90
10905;DHT22;5505;51.450;9.254;2023-03-01T19:34:55;-0.10;99.90
10905;DHT22;5505;51.450;9.254;2023-03-01T19:37:43;-0.10;99.90
10905;DHT22;5505;51.450;9.254;2023-03-01T19:40:29;0.00;99.90
10905;DHT22;5505;51.450;9.254;2023-03-01T19:43:16;0.10;99.90
10905;DHT22;5505;51.450;9.254;2023-03-01T19:46:04;0.10;99.90
10905;DHT22;5505;51.450;9.254;2023-03-01T19:48:53;0.10;99.90
10905;DHT22;5505;51.450;9.254;2023-03-01T19:51:40;0.10;99.90
10905;DHT22;5505;51.450;9.254;2023-03-01T19:54:28;-0.10;99.90
10905;DHT22;5505;51.450;9.254;2023-03-01T19:57:15;-0.40;99.90
10905;DHT22;5505;51.450;9.254;2023-03-01T20:00:04;-0.50;99.90
10905;DHT22;5505;51.450;9.254;2023-03-01T20:02:50;-0.50;99.90
10905;DHT22;5505;51.450;9.254;2023-03-01T20:05:38;-0.50;99.90
10905;DHT22;5505;51.450;9.254;2023-03-01T20:08:29;-0.50;99.90
10905;DHT22;5505;51.450;9.254;2023-03-01T20:11:20;-0.40;99.90
10905;DHT22;5505;51.450;9.254;2023-03-01T20:14:08;-0.30;99.90
10905;DHT22;5505;51.450;9.254;2023-03-01T20:16:56;-0.30;99.90
10905;DHT22;5505;51.450;9.254;2023-03-01T20:19:43;-0.30;99.90
10905;DHT22;5505;51.450;9.254;2023-03-01T20:22:30;2.10;99.90
10905;DHT22;5505;51.450;9.254;2023-03-01T20:25:17;-0.40;99.90
10905;DHT22;5505;51.450;9.254;2023-03-01T20:28:07;-0.40;99.90
10905;DHT22;5505;51.450;9.254;2023-03-01T20:30:54;-0.50;99.90
10905;DHT22;5505;51.450;9.254;2023-03-01T20:33:41;-0.50;99.90
10905;DHT22;5505;51.450;9.254;2023-03-01T20:36:27;-0.50;99.90
10905;DHT22;5505;51.450;9.254;2023-03-01T20:39:14;1.90;99.90
10905;DHT22;5505;51.450;9.254;2023-03-01T20:42:01;-0.60;99.90
10905;DHT22;5505;51.450;9.254;2023-03-01T20:44:50;-0.90;99.90
10905;DHT22;5505;51.450;9.254;2023-03-01T20:47:37;0.10;99.90
10905;DHT22;5505;51.450;9.254;2023-03-01T20:50:24;-0.60;99.90
10905;DHT22;5505;51.450;9.254;2023-03-01T20:53:12;-0.70;99.90
10905;DHT22;5505;51.450;9.254;2023-03-01T20:56:01;-0.70;99.90
10905;DHT22;5505;51.450;9.254;2023-03-01T20:58:49;-0.80;99.90
10905;DHT22;5505;51.450;9.254;2023-03-01T21:01:37;-0.80;99.90
10905;DHT22;5505;51.450;9.254;2023-03-01T21:04:24;-0.10;99.90
10905;DHT22;5505;51.450;9.254;2023-03-01T21:07:11;-0.60;99.90
10905;DHT22;5505;51.450;9.254;2023-03-01T21:09:59;-0.90;99.90
10905;DHT22;5505;51.450;9.254;2023-03-01T21:12:46;-0.90;99.90
10905;DHT22;5505;51.450;9.254;2023-03-01T21:15:32;1.70;99.90
10905;DHT22;5505;51.450;9.254;2023-03-01T21:18:21;-0.80;99.90
10905;DHT22;5505;51.450;9.254;2023-03-01T21:21:10;-0.80;99.90
10905;DHT22;5505;51.450;9.254;2023-03-01T21:23:57;-0.70;99.90
10905;DHT22;5505;51.450;9.254;2023-03-01T21:26:44;-0.70;99.90
10905;DHT22;5505;51.450;9.254;2023-03-01T21:29:31;-0.30;99.90
10905;DHT22;5505;51.450;9.254;2023-03-01T21:32:18;-0.70;99.90
10905;DHT22;5505;51.450;9.254;2023-03-01T21:35:08;-0.70;99.90
10905;DHT22;5505;51.450;9.254;2023-03-01T21:37:55;-0.70;99.90
10905;DHT22;5505;51.450;9.254;2023-03-01T21:40:41;-0.70;99.90
10905;DHT22;5505;51.450;9.254;2023-03-01T21:43:28;-0.80;99.90
10905;DHT22;5505;51.450;9.254;2023-03-01T21:46:18;-0.80;99.90
10905;DHT22;5505;51.450;9.254;2023-03-01T21:49:05;-1.00;99.90
10905;DHT22;5505;51.450;9.254;2023-03-01T21:51:54;-0.90;99.90
10905;DHT22;5505;51.450;9.254;2023-03-01T21:54:42;-0.90;99.90
10905;DHT22;5505;51.450;9.254;2023-03-01T21:57:29;-2.10;99.90
10905;DHT22;5505;51.450;9.254;2023-03-01T22:00:17;-0.90;99.90
10905;DHT22;5505;51.450;9.254;2023-03-01T22:03:07;-0.90;99.90
10905;DHT22;5505;51.450;9.254;2023-03-01T22:05:54;-1.00;99.90
10905;DHT22;5505;51.450;9.254;2023-03-01T22:08:43;-1.20;99.90
10905;DHT22;5505;51.450;9.254;2023-03-01T22:11:31;-1.10;99.90
10905;DHT22;5505;51.450;9.254;2023-03-01T22:14:20;-1.00;99.90
10905;DHT22;5505;51.450;9.254;2023-03-01T22:17:07;-1.00;99.90
10905;DHT22;5505;51.450;9.254;2023-03-01T22:19:54;1.50;99.90
10905;DHT22;5505;51.450;9.254;2023-03-01T22:22:41;-1.40;99.90
10905;DHT22;5505;51.450;9.254;2023-03-01T22:25:30;-1.40;99.90
10905;DHT22;5505;51.450;9.254;2023-03-01T22:28:16;-1.50;99.90
10905;DHT22;5505;51.450;9.254;2023-03-01T22:31:04;-1.60;99.90
10905;DHT22;5505;51.450;9.254;2023-03-01T22:33:52;-1.50;99.90
10905;DHT22;5505;51.450;9.254;2023-03-01T22:36:39;-1.40;99.90
10905;DHT22;5505;51.450;9.254;2023-03-01T22:39:26;-1.40;99.90
10905;DHT22;5505;51.450;9.254;2023-03-01T22:42:14;-1.30;99.90
10905;DHT22;5505;51.450;9.254;2023-03-01T22:45:03;-1.20;99.90
10905;DHT22;5505;51.450;9.254;2023-03-01T22:47:50;-1.10;99.90
10905;DHT22;5505;51.450;9.254;2023-03-01T22:50:40;-1.10;99.90
10905;DHT22;5505;51.450;9.254;2023-03-01T22:53:27;-1.20;99.90
10905;DHT22;5505;51.450;9.254;2023-03-01T22:56:16;-1.10;99.90
10905;DHT22;5505;51.450;9.254;2023-03-01T22:59:09;-0.10;99.90
10905;DHT22;5505;51.450;9.254;2023-03-01T23:01:57;-1.20;99.90
10905;DHT22;5505;51.450;9.254;2023-03-01T23:04:43;-1.10;99.90
10905;DHT22;5505;51.450;9.254;2023-03-01T23:07:32;-1.20;99.90
10905;DHT22;5505;51.450;9.254;2023-03-01T23:10:19;-1.30;99.90
10905;DHT22;5505;51.450;9.254;2023-03-01T23:13:06;-1.40;99.90
10905;DHT22;5505;51.450;9.254;2023-03-01T23:15:55;-1.50;99.90
10905;DHT22;5505;51.450;9.254;2023-03-01T23:18:42;-1.50;99.90
10905;DHT22;5505;51.450;9.254;2023-03-01T23:21:29;-1.50;99.90
10905;DHT22;5505;51.450;9.254;2023-03-01T23:24:18;-1.50;99.90
10905;DHT22;5505;51.450;9.254;2023-03-01T23:27:05;-0.90;99.90
10905;DHT22;5505;51.450;9.254;2023-03-01T23:29:52;-1.40;99.90